Time;durP1;ratioP1;P1;durP2;ratioP2;P2;SDS_P1;SDS_P2;PMS_P1;PMS_P2;Temp;Humidity;BMP_temperature;BMP_pressure;BME280_temperature;BME280_humidity;BME280_pressure;Samples;Min_cycle;Max_cycle;Signal;HPM_P1;HPM_P2
2022/06/24 00:00:18;;;;;;;7.15;5.93;;;20.60;99.90;;;;;;5074396;28;20663;-75
2022/06/24 00:02:49;;;;;;;9.15;5.80;;;20.60;99.90;;;;;;5074653;28;20258;-75
2022/06/24 00:05:16;;;;;;;9.65;6.13;;;20.50;99.90;;;;;;5074084;28;20207;-76
2022/06/24 00:07:46;;;;;;;8.02;5.88;;;20.50;99.90;;;;;;5073981;28;20607;-75
2022/06/24 00:10:14;;;;;;;10.38;6.30;;;20.50;99.90;;;;;;5073780;28;20258;-75
2022/06/24 00:12:41;;;;;;;11.63;6.18;;;20.50;99.90;;;;;;5073767;28;20201;-74
2022/06/24 00:15:10;;;;;;;9.25;6.00;;;20.50;99.90;;;;;;5073828;28;20197;-75
2022/06/24 00:17:37;;;;;;;8.82;5.82;;;20.60;99.90;;;;;;5073766;28;20196;-75
2022/06/24 00:20:06;;;;;;;9.90;5.47;;;20.40;99.90;;;;;;5073495;28;20699;-75
2022/06/24 00:22:41;;;;;;;7.45;4.93;;;21.00;99.90;;;;;;5073600;28;20197;-74
2022/06/24 00:25:10;;;;;;;9.05;5.03;;;21.20;99.90;;;;;;5073594;28;20204;-75
2022/06/24 00:27:37;;;;;;;7.00;4.57;;;21.20;99.90;;;;;;5073751;28;20205;-75
2022/06/24 00:30:16;;;;;;;9.82;4.55;;;21.20;99.90;;;;;;5073614;28;20276;-75
2022/06/24 00:32:44;;;;;;;9.07;4.05;;;21.20;99.90;;;;;;5073560;28;20197;-75
2022/06/24 00:35:13;;;;;;;9.55;4.07;;;21.10;99.90;;;;;;5073360;28;20197;-75
2022/06/24 00:37:42;;;;;;;11.30;4.03;;;21.00;99.90;;;;;;5073310;28;20610;-75
2022/06/24 00:40:25;;;;;;;7.32;3.67;;;21.00;99.90;;;;;;5073353;28;20292;-76
2022/06/24 00:42:52;;;;;;;9.30;3.47;;;20.90;99.90;;;;;;5073377;28;20197;-75
2022/06/24 00:45:29;;;;;;;7.93;3.63;;;20.80;99.90;;;;;;5073325;28;20197;-75
2022/06/24 00:47:57;;;;;;;7.13;3.20;;;20.80;99.90;;;;;;5073178;28;20315;-75
2022/06/24 00:50:25;;;;;;;7.32;2.97;;;20.70;99.90;;;;;;5072951;28;20656;-75
2022/06/24 00:52:53;;;;;;;11.32;3.50;;;20.70;99.90;;;;;;5073080;28;20229;-75
2022/06/24 00:55:24;;;;;;;13.65;3.47;;;20.70;99.90;;;;;;5073205;28;20208;-75
2022/06/24 00:57:50;;;;;;;5.32;2.80;;;20.70;99.90;;;;;;5073154;28;20254;-75
2022/06/24 01:00:18;;;;;;;5.38;2.20;;;20.70;99.90;;;;;;5072952;28;20290;-75
2022/06/24 01:02:48;;;;;;;15.30;2.92;;;20.60;99.90;;;;;;5072930;28;20205;-75
2022/06/24 01:05:18;;;;;;;9.25;2.70;;;20.50;99.90;;;;;;5073011;28;20200;-75
2022/06/24 01:07:44;;;;;;;6.20;2.55;;;20.30;99.90;;;;;;5073061;28;20196;-75
2022/06/24 01:10:11;;;;;;;6.70;2.53;;;20.30;99.90;;;;;;5072258;28;20208;-75
2022/06/24 01:12:38;;;;;;;3.53;2.10;;;20.40;99.90;;;;;;5072845;28;20204;-76
2022/06/24 01:15:06;;;;;;;5.40;2.20;;;20.30;99.90;;;;;;5072736;28;20205;-75
2022/06/24 01:17:33;;;;;;;6.35;1.95;;;20.30;99.90;;;;;;5073013;28;20193;-75
2022/06/24 01:20:01;;;;;;;5.78;2.60;;;20.20;99.90;;;;;;5072866;28;20270;-75
2022/06/24 01:22:29;;;;;;;7.00;2.50;;;20.20;99.90;;;;;;5072900;28;20197;-75
2022/06/24 01:24:56;;;;;;;6.75;2.40;;;20.10;99.90;;;;;;5072698;28;20201;-75
2022/06/24 01:27:23;;;;;;;5.53;2.50;;;20.10;99.90;;;;;;5072680;28;20200;-75
2022/06/24 01:29:50;;;;;;;7.22;2.28;;;20.10;99.90;;;;;;5072565;28;20200;-75
2022/06/24 01:32:17;;;;;;;5.50;2.33;;;20.10;99.90;;;;;;5072765;28;20201;-75
2022/06/24 01:34:43;;;;;;;4.85;2.42;;;20.10;99.90;;;;;;5072690;28;20197;-75
2022/06/24 01:37:10;;;;;;;4.03;2.03;;;20.00;99.90;;;;;;5072779;28;20201;-75
2022/06/24 01:39:38;;;;;;;5.68;2.10;;;20.00;99.90;;;;;;5072450;28;20672;-75
2022/06/24 01:42:06;;;;;;;6.30;2.13;;;19.80;99.90;;;;;;5072556;28;20247;-75
2022/06/24 01:44:33;;;;;;;7.20;2.55;;;19.70;99.90;;;;;;5072477;28;20648;-75
2022/06/24 01:47:00;;;;;;;5.05;2.42;;;19.70;99.90;;;;;;5072552;28;20668;-75
2022/06/24 01:49:26;;;;;;;4.43;2.40;;;19.60;99.90;;;;;;5072712;28;20631;-75
2022/06/24 01:51:55;;;;;;;8.95;2.40;;;19.60;99.90;;;;;;5072717;28;20196;-76
2022/06/24 01:54:22;;;;;;;6.53;2.38;;;19.50;99.90;;;;;;5072415;28;20233;-76
2022/06/24 01:56:50;;;;;;;7.10;2.55;;;19.30;99.90;;;;;;5072463;28;20201;-75
2022/06/24 01:59:17;;;;;;;5.45;2.33;;;19.30;99.90;;;;;;5072685;28;20607;-75
2022/06/24 02:01:44;;;;;;;5.78;2.30;;;19.30;99.90;;;;;;5072554;28;20228;-75
2022/06/24 02:04:11;;;;;;;6.75;2.33;;;19.30;99.90;;;;;;5072550;28;20242;-76
2022/06/24 02:06:37;;;;;;;8.10;2.50;;;19.20;99.90;;;;;;5072343;28;20201;-75
2022/06/24 02:09:04;;;;;;;4.93;2.22;;;19.20;99.90;;;;;;5072291;28;20243;-75
2022/06/24 02:14:17;;;;;;;7.95;2.45;;;19.20;99.90;;;;;;5072295;28;20200;-75
2022/06/24 02:16:44;;;;;;;4.78;2.20;;;19.10;99.90;;;;;;5072277;28;20197;-75
2022/06/24 02:19:11;;;;;;;6.35;2.30;;;19.20;99.90;;;;;;5072260;28;20259;-75
2022/06/24 02:21:38;;;;;;;3.75;2.35;;;19.20;99.90;;;;;;5072642;28;20611;-74
2022/06/24 02:24:06;;;;;;;4.18;2.38;;;19.20;99.90;;;;;;5075978;28;20197;-75
2022/06/24 02:26:32;;;;;;;6.57;2.47;;;19.10;99.90;;;;;;5076009;28;20238;-75
2022/06/24 02:28:59;;;;;;;5.82;2.28;;;19.00;99.90;;;;;;5076053;28;20196;-75
2022/06/24 02:31:27;;;;;;;6.57;2.20;;;19.00;99.90;;;;;;5075800;28;20196;-75
2022/06/24 02:33:54;;;;;;;6.00;2.42;;;19.00;99.90;;;;;;5075771;28;20201;-74
2022/06/24 02:36:20;;;;;;;5.90;2.20;;;19.00;99.90;;;;;;5075751;28;20595;-74
2022/06/24 02:38:47;;;;;;;5.07;2.38;;;19.00;99.90;;;;;;5075882;28;20208;-74
2022/06/24 02:41:14;;;;;;;4.78;2.22;;;19.00;99.90;;;;;;5077658;28;20254;-75
2022/06/24 02:43:41;;;;;;;6.97;2.55;;;19.00;99.90;;;;;;5076230;28;20725;-75
2022/06/24 02:46:09;;;;;;;5.35;2.22;;;18.90;99.90;;;;;;5075795;28;20228;-75
2022/06/24 02:48:39;;;;;;;6.13;2.22;;;18.90;99.90;;;;;;5075959;28;20201;-75
2022/06/24 02:51:08;;;;;;;7.43;2.33;;;18.90;99.90;;;;;;5076097;28;20205;-75
2022/06/24 02:53:35;;;;;;;9.10;2.60;;;18.90;99.90;;;;;;5075847;28;20228;-75
2022/06/24 02:56:04;;;;;;;8.27;2.30;;;18.90;99.90;;;;;;5075988;28;20251;-75
2022/06/24 02:58:32;;;;;;;5.70;2.40;;;18.80;99.90;;;;;;5075614;28;20602;-75
2022/06/24 03:00:59;;;;;;;5.18;2.55;;;18.80;99.90;;;;;;5075295;28;20243;-75
2022/06/24 03:03:26;;;;;;;7.70;2.80;;;18.70;99.90;;;;;;5075205;28;20200;-75
2022/06/24 03:05:54;;;;;;;7.22;2.60;;;18.50;99.90;;;;;;5075383;28;20255;-75
2022/06/24 03:08:23;;;;;;;6.10;3.00;;;18.40;99.90;;;;;;5075300;28;20192;-75
2022/06/24 03:10:50;;;;;;;9.68;3.03;;;18.30;99.90;;;;;;5075504;28;20205;-75
2022/06/24 03:13:17;;;;;;;8.15;3.30;;;18.10;99.90;;;;;;5075131;28;20211;-75
2022/06/24 03:15:45;;;;;;;4.15;3.10;;;18.20;99.90;;;;;;5074979;28;20197;-75
2022/06/24 03:18:13;;;;;;;9.00;3.17;;;18.10;99.90;;;;;;5074864;28;20242;-75
2022/06/24 03:20:40;;;;;;;8.85;3.15;;;18.00;99.90;;;;;;5075013;28;20224;-75
2022/06/24 03:23:08;;;;;;;5.22;3.45;;;18.00;99.90;;;;;;5074995;28;20258;-75
2022/06/24 03:25:35;;;;;;;7.15;2.95;;;18.00;99.90;;;;;;5074914;28;20197;-72
2022/06/24 03:28:04;;;;;;;6.10;3.03;;;18.00;99.90;;;;;;5074858;28;20242;-75
2022/06/24 03:30:31;;;;;;;6.70;3.00;;;17.90;99.90;;;;;;5074745;28;20200;-73
2022/06/24 03:32:57;;;;;;;5.05;2.95;;;17.90;99.90;;;;;;5074422;28;20201;-74
2022/06/24 03:35:24;;;;;;;4.80;3.05;;;17.90;99.90;;;;;;5074336;28;20201;-73
2022/06/24 03:37:51;;;;;;;5.75;2.80;;;17.90;99.90;;;;;;5074752;28;20197;-75
2022/06/24 03:40:19;;;;;;;4.28;2.70;;;17.80;99.90;;;;;;5074511;28;20207;-75
2022/06/24 03:42:45;;;;;;;4.95;2.92;;;17.80;99.90;;;;;;5074470;28;20579;-75
2022/06/24 03:45:12;;;;;;;9.70;3.67;;;17.80;99.90;;;;;;5074310;28;20197;-76
2022/06/24 03:47:39;;;;;;;7.10;3.95;;;17.90;99.90;;;;;;5074541;28;20242;-73
2022/06/24 03:50:06;;;;;;;8.90;4.00;;;18.00;99.90;;;;;;5074391;28;20596;-75
2022/06/24 03:52:33;;;;;;;7.72;3.70;;;18.10;99.90;;;;;;5074147;28;20205;-75
2022/06/24 03:54:59;;;;;;;11.07;3.60;;;18.20;99.90;;;;;;5074205;28;20708;-75
2022/06/24 03:57:27;;;;;;;5.95;3.83;;;18.20;99.90;;;;;;5074133;28;20204;-74
2022/06/24 03:59:54;;;;;;;5.30;3.10;;;18.20;99.90;;;;;;5073981;28;20250;-75
2022/06/24 04:02:21;;;;;;;9.90;3.97;;;18.00;99.90;;;;;;5073960;28;20759;-74
2022/06/24 04:04:48;;;;;;;5.15;2.78;;;18.00;99.90;;;;;;5074302;28;20301;-74
2022/06/24 04:07:14;;;;;;;4.30;2.70;;;17.90;99.90;;;;;;5074080;28;20201;-74
2022/06/24 04:09:41;;;;;;;4.10;2.63;;;17.90;99.90;;;;;;5074024;28;20197;-74
2022/06/24 04:12:08;;;;;;;4.90;3.30;;;18.00;99.90;;;;;;5073768;28;20205;-75
2022/06/24 04:17:21;;;;;;;4.80;3.13;;;18.10;99.90;;;;;;5073815;28;20548;-74
2022/06/24 04:19:47;;;;;;;7.43;3.05;;;18.10;99.90;;;;;;5073775;28;20254;-74
2022/06/24 04:22:14;;;;;;;7.70;3.72;;;18.10;99.90;;;;;;5073546;28;20258;-74
2022/06/24 04:24:40;;;;;;;4.65;3.13;;;18.20;99.90;;;;;;5073571;28;20239;-74
2022/06/24 04:27:09;;;;;;;6.00;3.25;;;18.10;99.90;;;;;;5073733;28;20222;-74
2022/06/24 04:29:37;;;;;;;6.05;3.20;;;18.10;99.90;;;;;;5073596;28;20611;-75
2022/06/24 04:32:04;;;;;;;3.72;3.05;;;18.10;99.90;;;;;;5073587;28;20197;-74
2022/06/24 04:34:30;;;;;;;4.68;3.15;;;18.10;99.90;;;;;;5073426;28;20598;-74
2022/06/24 04:36:57;;;;;;;5.72;2.75;;;18.10;99.90;;;;;;5073398;28;20243;-74
2022/06/24 04:39:24;;;;;;;7.75;3.00;;;18.10;99.90;;;;;;5073194;28;20204;-75
2022/06/24 04:41:50;;;;;;;6.70;2.90;;;18.10;99.90;;;;;;5073163;28;20361;-75
2022/06/24 04:44:17;;;;;;;5.85;3.20;;;18.10;99.90;;;;;;5073333;28;20201;-75
2022/06/24 04:46:45;;;;;;;4.35;3.20;;;18.10;99.90;;;;;;5073305;28;20258;-75
2022/06/24 04:49:11;;;;;;;8.27;3.25;;;18.20;99.90;;;;;;5073187;28;20197;-75
2022/06/24 04:51:38;;;;;;;4.22;2.70;;;18.20;99.90;;;;;;5073005;28;20204;-74
2022/06/24 04:54:05;;;;;;;7.57;3.10;;;18.20;99.90;;;;;;5072977;28;20303;-74
2022/06/24 04:56:31;;;;;;;4.18;2.67;;;18.30;99.90;;;;;;5073327;28;20219;-75
2022/06/24 04:58:58;;;;;;;7.00;2.90;;;18.30;99.90;;;;;;5073146;28;20201;-74
2022/06/24 05:01:25;;;;;;;9.63;2.90;;;18.30;99.90;;;;;;5072922;28;20684;-74
2022/06/24 05:03:52;;;;;;;5.43;2.60;;;18.40;99.90;;;;;;5072977;28;20263;-74
2022/06/24 05:06:19;;;;;;;7.15;3.00;;;18.50;99.90;;;;;;5072885;28;20209;-74
2022/06/24 05:08:47;;;;;;;7.85;3.60;;;18.50;99.90;;;;;;5073012;28;20196;-74
2022/06/24 05:11:14;;;;;;;4.82;3.30;;;18.50;99.90;;;;;;5073035;28;20203;-73
2022/06/24 05:13:40;;;;;;;3.83;2.67;;;18.60;99.90;;;;;;5072749;28;20193;-73
2022/06/24 05:16:07;;;;;;;5.97;2.92;;;18.60;99.90;;;;;;5072808;28;20242;-73
2022/06/24 05:18:33;;;;;;;4.15;2.55;;;18.80;99.90;;;;;;5072760;28;20270;-73
2022/06/24 05:21:02;;;;;;;6.97;2.92;;;18.90;99.90;;;;;;5072574;28;20644;-73
2022/06/24 05:23:29;;;;;;;6.40;2.67;;;19.10;99.90;;;;;;5072728;28;20283;-73
2022/06/24 05:25:56;;;;;;;5.07;2.88;;;19.10;99.90;;;;;;5072779;28;20208;-74
2022/06/24 05:28:22;;;;;;;6.50;2.78;;;19.20;99.90;;;;;;5072611;28;20254;-74
2022/06/24 05:30:55;;;;;;;3.20;2.50;;;19.30;99.90;;;;;;5072610;28;20215;-73
2022/06/24 05:33:22;;;;;;;5.20;2.58;;;19.40;99.90;;;;;;5072485;28;20254;-73
2022/06/24 05:35:51;;;;;;;5.78;2.45;;;19.70;99.90;;;;;;5072740;28;20200;-74
2022/06/24 05:38:21;;;;;;;4.75;2.55;;;19.90;99.90;;;;;;5072637;28;20204;-74
2022/06/24 05:40:48;;;;;;;3.63;2.67;;;20.00;99.90;;;;;;5072737;28;20251;-74
2022/06/24 05:43:15;;;;;;;4.60;2.45;;;20.20;99.90;;;;;;5072797;28;20225;-74
2022/06/24 05:45:42;;;;;;;5.68;2.60;;;20.40;99.90;;;;;;5073452;28;20196;-74
2022/06/24 05:48:09;;;;;;;3.53;2.28;;;20.50;99.90;;;;;;5072273;28;20253;-73
2022/06/24 05:50:37;;;;;;;5.45;2.30;;;20.50;99.90;;;;;;5072686;28;20199;-81
2022/06/24 05:55:49;;;;;;;5.47;2.70;;;20.30;99.90;;;;;;5072418;28;20204;-76
2022/06/24 05:58:16;;;;;;;4.95;2.72;;;20.10;99.90;;;;;;5074786;28;20648;-75
2022/06/24 06:00:43;;;;;;;3.70;2.65;;;20.40;99.90;;;;;;5076599;28;20656;-76
2022/06/24 06:03:10;;;;;;;6.57;2.75;;;20.40;99.90;;;;;;5080753;28;20224;-76
2022/06/24 06:05:36;;;;;;;6.10;2.80;;;20.50;99.90;;;;;;5076531;28;20192;-75
2022/06/24 06:08:03;;;;;;;5.30;3.28;;;20.60;99.90;;;;;;5076374;28;20201;-76
2022/06/24 06:10:30;;;;;;;6.75;3.40;;;20.60;99.90;;;;;;5076460;28;20243;-75
2022/06/24 06:12:58;;;;;;;5.25;3.15;;;20.60;99.90;;;;;;5076043;28;20201;-75
2022/06/24 06:15:24;;;;;;;6.07;3.45;;;20.60;99.90;;;;;;5075977;28;20652;-75
2022/06/24 06:17:51;;;;;;;6.68;3.20;;;20.80;99.90;;;;;;5076137;28;20202;-76
2022/06/24 06:20:18;;;;;;;5.82;3.22;;;20.90;99.90;;;;;;5076024;28;20193;-75
2022/06/24 06:22:44;;;;;;;5.95;3.25;;;20.90;99.90;;;;;;5075904;28;20240;-75
2022/06/24 06:25:11;;;;;;;6.22;3.35;;;21.00;99.90;;;;;;5075846;28;20201;-75
2022/06/24 06:27:38;;;;;;;6.95;3.53;;;21.00;99.90;;;;;;5075672;28;20208;-75
2022/06/24 06:30:07;;;;;;;5.82;3.50;;;21.10;99.90;;;;;;5075840;28;20231;-75
2022/06/24 06:32:34;;;;;;;5.63;3.38;;;20.90;99.90;;;;;;5075773;28;20193;-75
2022/06/24 06:35:00;;;;;;;8.10;3.50;;;21.20;99.90;;;;;;5075772;28;20197;-75
2022/06/24 06:37:27;;;;;;;5.90;3.10;;;21.40;99.90;;;;;;5075690;28;20270;-75
2022/06/24 06:39:54;;;;;;;8.48;3.25;;;21.30;99.90;;;;;;5075761;28;20247;-75
2022/06/24 06:42:20;;;;;;;6.20;3.70;;;21.30;99.90;;;;;;5075479;28;20224;-75
2022/06/24 06:44:47;;;;;;;5.13;3.20;;;21.50;99.90;;;;;;5075880;28;20275;-75
2022/06/24 06:47:15;;;;;;;6.07;3.20;;;21.50;99.90;;;;;;5075745;28;20201;-76
2022/06/24 06:49:42;;;;;;;5.60;3.05;;;21.70;99.90;;;;;;5075676;28;20197;-76
2022/06/24 06:52:09;;;;;;;7.65;3.33;;;21.80;99.90;;;;;;5075469;28;20587;-75
2022/06/24 06:54:35;;;;;;;5.53;2.97;;;21.90;99.90;;;;;;5075150;28;20229;-75
2022/06/24 06:57:02;;;;;;;10.18;3.85;;;21.80;99.90;;;;;;5075408;28;20721;-75
2022/06/24 06:59:29;;;;;;;6.53;3.13;;;22.00;99.90;;;;;;5075376;28;20197;-74
2022/06/24 07:01:55;;;;;;;7.35;2.95;;;22.00;99.90;;;;;;5075291;28;20228;-76
2022/06/24 07:04:23;;;;;;;7.88;3.40;;;22.10;99.90;;;;;;5075344;28;20201;-75
2022/06/24 07:06:52;;;;;;;5.55;3.10;;;22.40;99.90;;;;;;5075159;28;20197;-75
2022/06/24 07:09:19;;;;;;;8.07;2.92;;;22.30;99.90;;;;;;5073684;28;20387;-76
2022/06/24 07:11:46;;;;;;;8.93;3.70;;;22.40;99.90;;;;;;5074950;28;20598;-75
2022/06/24 07:14:12;;;;;;;6.03;3.40;;;22.50;99.90;;;;;;5075115;28;20197;-75
2022/06/24 07:16:39;;;;;;;6.13;3.17;;;22.40;99.90;;;;;;5074971;28;20394;-76
2022/06/24 07:19:06;;;;;;;4.95;2.97;;;22.70;99.90;;;;;;5075003;28;20242;-75
2022/06/24 07:21:34;;;;;;;4.47;2.92;;;23.00;99.90;;;;;;5074988;28;20197;-74
2022/06/24 07:24:00;;;;;;;6.00;3.55;;;23.10;99.90;;;;;;5074777;28;20198;-75
2022/06/24 07:26:27;;;;;;;6.10;3.17;;;22.90;99.90;;;;;;5075023;28;20201;-75
2022/06/24 07:28:54;;;;;;;9.18;3.47;;;23.20;99.90;;;;;;5074938;28;20197;-75
2022/06/24 07:31:21;;;;;;;6.45;3.03;;;22.80;99.90;;;;;;5074686;28;20647;-74
2022/06/24 07:33:48;;;;;;;8.48;3.38;;;22.60;99.90;;;;;;5074696;28;20205;-75
2022/06/24 07:36:15;;;;;;;5.47;2.90;;;22.80;99.90;;;;;;5074684;28;20242;-75
2022/06/24 07:38:43;;;;;;;8.63;3.17;;;23.00;99.90;;;;;;5074470;28;20197;-75
2022/06/24 07:41:09;;;;;;;10.05;3.45;;;23.20;99.90;;;;;;5074472;28;20602;-75
2022/06/24 07:43:37;;;;;;;5.75;3.17;;;23.30;99.90;;;;;;5074418;28;20290;-75
2022/06/24 07:46:05;;;;;;;11.07;3.80;;;22.80;99.90;;;;;;5074475;28;20197;-76
2022/06/24 07:48:32;;;;;;;6.65;3.17;;;22.50;99.90;;;;;;5074368;28;20201;-75
2022/06/24 07:51:08;;;;;;;12.27;3.47;;;22.40;99.90;;;;;;5074067;28;20326;-75
2022/06/24 07:53:35;;;;;;;7.45;3.78;;;22.60;99.90;;;;;;5074195;28;20229;-75
2022/06/24 07:58:47;;;;;;;7.82;3.78;;;23.00;99.90;;;;;;5074028;28;20725;-76
2022/06/24 08:01:14;;;;;;;11.25;3.60;;;23.60;99.90;;;;;;5074189;28;20197;-75
2022/06/24 08:03:41;;;;;;;7.10;3.70;;;23.70;99.90;;;;;;5074332;28;20227;-76
2022/06/24 08:06:07;;;;;;;8.57;3.58;;;23.20;99.90;;;;;;5074172;28;20231;-75
2022/06/24 08:08:34;;;;;;;9.45;3.45;;;22.90;99.90;;;;;;5074100;28;20246;-75
2022/06/24 08:11:02;;;;;;;5.78;3.33;;;22.60;99.90;;;;;;5074078;28;20193;-74
2022/06/24 08:13:30;;;;;;;7.95;3.33;;;22.50;99.90;;;;;;5073847;28;20235;-75
2022/06/24 08:15:56;;;;;;;7.90;3.33;;;22.80;99.90;;;;;;5073505;28;20197;-76
2022/06/24 08:18:23;;;;;;;5.93;3.22;;;23.30;99.90;;;;;;5073841;28;20192;-74
2022/06/24 08:20:50;;;;;;;6.90;3.45;;;23.20;99.90;;;;;;5073289;28;20254;-75
2022/06/24 08:23:17;;;;;;;6.63;3.10;;;23.50;99.90;;;;;;5073588;28;20225;-75
2022/06/24 08:25:43;;;;;;;8.27;3.75;;;23.50;99.90;;;;;;5073857;28;20640;-75
2022/06/24 08:28:14;;;;;;;6.82;3.65;;;23.40;99.90;;;;;;5073516;28;20660;-75
2022/06/24 08:30:40;;;;;;;7.45;3.17;;;23.90;99.90;;;;;;5073497;28;20197;-76
2022/06/24 08:33:07;;;;;;;7.90;3.45;;;23.60;99.90;;;;;;5073555;28;20201;-74
2022/06/24 08:35:34;;;;;;;8.05;3.50;;;23.70;99.90;;;;;;5073495;28;20200;-75
2022/06/24 08:38:00;;;;;;;9.23;3.45;;;23.90;99.90;;;;;;5073182;28;20243;-75
2022/06/24 08:40:29;;;;;;;7.47;3.90;;;23.50;99.90;;;;;;5073451;28;20197;-75
2022/06/24 08:42:59;;;;;;;6.72;3.40;;;23.60;99.90;;;;;;5073371;28;20289;-76
2022/06/24 08:45:28;;;;;;;8.82;3.65;;;23.70;99.90;;;;;;5073684;28;20204;-74
2022/06/24 08:47:55;;;;;;;7.70;3.42;;;24.40;99.90;;;;;;5074047;28;20193;-75
2022/06/24 08:50:22;;;;;;;8.48;3.47;;;24.30;99.90;;;;;;5073601;28;20219;-75
2022/06/24 08:52:50;;;;;;;6.57;3.20;;;23.50;99.90;;;;;;5073202;28;20278;-76
2022/06/24 08:55:19;;;;;;;8.38;3.22;;;22.90;99.90;;;;;;5073179;28;20197;-75
2022/06/24 08:57:47;;;;;;;6.55;3.38;;;22.90;99.90;;;;;;5073021;28;20197;-74
2022/06/24 09:00:15;;;;;;;6.03;3.38;;;23.00;99.90;;;;;;5073079;28;20197;-75
2022/06/24 09:02:43;;;;;;;7.00;3.42;;;22.90;99.90;;;;;;5072906;28;20278;-74
2022/06/24 09:05:13;;;;;;;5.28;3.08;;;23.00;99.90;;;;;;5073301;28;20196;-75
2022/06/24 09:07:39;;;;;;;4.30;3.42;;;23.00;99.90;;;;;;5072872;28;20603;-75
2022/06/24 09:10:10;;;;;;;7.32;3.17;;;23.20;99.90;;;;;;5072693;28;20197;-75
2022/06/24 09:12:39;;;;;;;8.52;3.15;;;23.30;99.90;;;;;;5072939;28;20620;-74
2022/06/24 09:15:07;;;;;;;5.55;3.15;;;23.30;99.90;;;;;;5072659;28;20669;-75
2022/06/24 09:17:35;;;;;;;5.68;3.28;;;23.60;99.90;;;;;;5072835;28;20729;-75
2022/06/24 09:20:12;;;;;;;5.45;3.10;;;23.80;99.90;;;;;;5072642;28;20201;-75
2022/06/24 09:22:39;;;;;;;5.05;2.70;;;24.60;99.90;;;;;;5072494;28;20273;-75
2022/06/24 09:25:07;;;;;;;7.15;3.15;;;24.70;99.90;;;;;;5072733;28;20536;-75
2022/06/24 09:27:34;;;;;;;6.53;3.33;;;24.80;99.90;;;;;;5072606;28;20197;-75
2022/06/24 09:30:02;;;;;;;10.98;3.33;;;24.70;99.90;;;;;;5072489;28;20291;-75
2022/06/24 09:32:29;;;;;;;4.85;2.80;;;25.30;99.90;;;;;;5071906;28;20303;-75
2022/06/24 09:35:04;;;;;;;9.02;3.20;;;25.10;99.90;;;;;;5072556;28;20197;-75
2022/06/24 09:37:37;;;;;;;6.03;2.60;;;25.00;99.90;;;;;;5072651;28;20257;-75
2022/06/24 09:40:23;;;;;;;5.72;2.75;;;24.70;99.90;;;;;;5072571;28;20200;-75
2022/06/24 09:42:57;;;;;;;4.75;2.67;;;24.70;99.90;;;;;;5072197;28;20762;-75
2022/06/24 09:45:25;;;;;;;5.45;3.05;;;24.80;99.90;;;;;;5072588;28;20197;-75
2022/06/24 09:47:53;;;;;;;6.70;3.22;;;25.10;99.90;;;;;;5072619;28;20292;-76
2022/06/24 09:50:20;;;;;;;6.40;2.70;;;25.70;99.90;;;;;;5072280;28;20657;-75
2022/06/24 09:52:50;;;;;;;6.22;3.13;;;25.70;99.90;;;;;;5072283;28;20232;-74
2022/06/24 09:55:17;;;;;;;5.75;2.70;;;26.40;99.90;;;;;;5072261;28;20652;-74
2022/06/24 09:57:44;;;;;;;7.05;2.80;;;27.40;99.90;;;;;;5072439;28;20245;-74
2022/06/24 10:02:59;;;;;;;5.07;2.58;;;27.40;99.90;;;;;;5072574;28;20587;-75
2022/06/24 10:05:30;;;;;;;4.82;2.88;;;27.20;99.90;;;;;;5072443;28;20200;-75
2022/06/24 10:07:59;;;;;;;8.15;2.95;;;27.00;99.90;;;;;;5072278;28;20204;-74
2022/06/24 10:10:28;;;;;;;5.97;2.90;;;26.50;99.90;;;;;;5072205;28;20242;-75
2022/06/24 10:13:01;;;;;;;3.92;2.80;;;26.60;99.90;;;;;;5072173;28;20219;-75
2022/06/24 10:15:28;;;;;;;5.60;2.70;;;26.80;99.90;;;;;;5072263;28;20254;-75
2022/06/24 10:17:56;;;;;;;5.68;2.60;;;26.80;99.90;;;;;;5072214;28;20189;-76
2022/06/24 10:20:24;;;;;;;4.32;2.65;;;27.30;99.90;;;;;;5072057;28;20255;-75
2022/06/24 10:22:51;;;;;;;5.30;2.80;;;28.40;99.90;;;;;;5071967;28;20220;-75
2022/06/24 10:25:23;;;;;;;6.18;2.22;;;29.70;97.80;;;;;;5072067;28;20675;-75
2022/06/24 10:28:07;;;;;;;7.03;2.53;;;31.10;92.70;;;;;;5072100;28;20652;-75
2022/06/24 10:30:58;;;;;;;5.07;2.25;;;31.20;87.00;;;;;;5072032;28;20244;-75
2022/06/24 10:33:29;;;;;;;3.65;2.50;;;30.70;85.50;;;;;;5066990;28;20205;-76
2022/06/24 10:35:58;;;;;;;6.93;2.58;;;31.20;82.90;;;;;;5072012;28;20197;-75
2022/06/24 10:38:34;;;;;;;4.55;2.60;;;31.40;78.80;;;;;;5071883;28;20201;-75
2022/06/24 10:41:02;;;;;;;8.38;2.55;;;31.00;77.40;;;;;;5071995;28;20250;-75
2022/06/24 10:43:36;;;;;;;4.90;2.38;;;30.80;74.70;;;;;;5073583;28;20217;-75
2022/06/24 10:46:17;;;;;;;6.25;2.83;;;28.80;80.20;;;;;;5075144;28;20296;-75
2022/06/24 10:49:00;;;;;;;6.15;2.65;;;28.10;84.20;;;;;;5075585;28;20231;-75
2022/06/24 10:51:34;;;;;;;7.07;2.55;;;29.30;82.10;;;;;;5075505;28;20203;-75
2022/06/24 10:54:12;;;;;;;5.85;2.10;;;28.80;78.10;;;;;;5075416;28;20235;-75
2022/06/24 10:56:43;;;;;;;3.13;1.90;;;30.10;74.40;;;;;;5075623;28;20200;-75
2022/06/24 10:59:10;;;;;;;5.13;2.15;;;30.90;70.10;;;;;;5075470;28;20200;-75
2022/06/24 11:01:41;;;;;;;7.30;2.38;;;31.80;69.20;;;;;;5075317;28;20586;-76
2022/06/24 11:04:11;;;;;;;6.85;2.67;;;32.50;63.20;;;;;;5075061;28;20224;-76
2022/06/24 11:06:38;;;;;;;4.80;2.67;;;31.30;62.30;;;;;;5075133;28;20200;-74
2022/06/24 11:09:06;;;;;;;6.93;2.30;;;31.50;61.80;;;;;;5075849;28;20205;-74
2022/06/24 11:11:34;;;;;;;4.32;2.22;;;31.40;58.20;;;;;;5075253;28;20209;-74
2022/06/24 11:14:25;;;;;;;8.05;3.38;;;31.70;57.80;;;;;;5075066;28;20698;-74
2022/06/24 11:16:52;;;;;;;4.00;2.22;;;32.60;55.80;;;;;;5075087;28;20204;-74
2022/06/24 11:19:19;;;;;;;3.67;2.00;;;33.30;54.50;;;;;;5074716;28;20689;-74
2022/06/24 11:21:47;;;;;;;6.30;2.22;;;33.70;52.90;;;;;;5074916;28;20196;-74
2022/06/24 11:24:16;;;;;;;5.45;2.50;;;33.40;51.50;;;;;;5074708;28;20698;-74
2022/06/24 11:27:02;;;;;;;4.93;2.13;;;34.20;50.50;;;;;;5075102;28;20254;-74
2022/06/24 11:29:49;;;;;;;4.25;2.90;;;33.90;50.30;;;;;;5074729;28;20200;-75
2022/06/24 11:32:16;;;;;;;5.00;2.60;;;33.60;52.90;;;;;;5074805;28;20200;-74
2022/06/24 11:34:44;;;;;;;6.78;2.50;;;32.90;52.00;;;;;;5074675;28;20257;-74
2022/06/24 11:37:11;;;;;;;6.30;2.88;;;33.40;52.60;;;;;;5074513;28;20192;-74
2022/06/24 11:39:37;;;;;;;8.10;2.65;;;33.10;53.30;;;;;;5074502;28;20262;-74
2022/06/24 11:42:05;;;;;;;5.80;2.88;;;33.60;53.10;;;;;;5074246;28;20201;-74
2022/06/24 11:44:34;;;;;;;6.38;2.80;;;32.90;51.40;;;;;;5074484;28;20223;-73
2022/06/24 11:47:01;;;;;;;6.43;2.45;;;31.00;51.50;;;;;;5074496;28;20250;-75
2022/06/24 11:49:30;;;;;;;6.18;2.88;;;30.30;53.80;;;;;;5074499;28;20232;-75
2022/06/24 11:51:57;;;;;;;5.90;3.03;;;29.70;56.20;;;;;;5074339;28;20239;-75
2022/06/24 11:54:27;;;;;;;6.47;3.00;;;29.90;58.20;;;;;;5073430;28;20229;-75
2022/06/24 11:56:55;;;;;;;6.40;2.70;;;29.50;59.90;;;;;;5074361;28;20205;-75
2022/06/24 11:59:23;;;;;;;6.22;2.95;;;28.80;60.80;;;;;;5074561;28;20197;-75
2022/06/24 12:01:52;;;;;;;5.60;2.88;;;28.30;63.10;;;;;;5074084;28;20200;-74
2022/06/24 12:04:23;;;;;;;7.30;3.50;;;28.20;65.20;;;;;;5068694;28;20217;-73
2022/06/24 12:06:50;;;;;;;6.75;3.45;;;28.90;64.50;;;;;;5068864;28;20193;-73
2022/06/24 12:09:17;;;;;;;6.30;3.15;;;31.30;59.90;;;;;;5073487;28;20189;-74
2022/06/24 12:11:44;;;;;;;6.25;2.88;;;33.10;52.30;;;;;;5073451;28;20200;-73
2022/06/24 12:14:14;;;;;;;3.38;2.47;;;30.90;52.00;;;;;;5073748;28;20193;-73
2022/06/24 12:16:59;;;;;;;4.68;2.28;;;30.60;53.00;;;;;;5073397;28;20533;-73
2022/06/24 12:19:26;;;;;;;4.10;2.50;;;29.90;54.40;;;;;;5073451;28;20197;-73
2022/06/24 12:22:04;;;;;;;7.50;2.42;;;30.30;54.50;;;;;;5073165;28;20253;-74
2022/06/24 12:24:30;;;;;;;4.80;2.40;;;30.10;54.30;;;;;;5073490;28;20216;-74
2022/06/24 12:26:58;;;;;;;5.47;2.70;;;28.90;56.90;;;;;;5073182;28;20195;-74
2022/06/24 12:29:27;;;;;;;4.00;2.60;;;28.40;58.40;;;;;;5073267;28;20197;-73
2022/06/24 12:31:54;;;;;;;8.07;3.13;;;27.90;59.60;;;;;;5073036;28;20298;-74
2022/06/24 12:34:29;;;;;;;4.35;2.53;;;27.80;60.30;;;;;;5070793;28;20243;-73
2022/06/24 12:36:58;;;;;;;7.88;3.00;;;27.60;61.90;;;;;;5073546;28;20196;-73
2022/06/24 12:39:30;;;;;;;7.30;3.90;;;26.90;64.40;;;;;;5073566;28;20201;-74
2022/06/24 12:41:57;;;;;;;6.68;2.95;;;27.20;66.90;;;;;;5073319;28;20278;-74
2022/06/24 12:44:24;;;;;;;3.70;2.45;;;27.30;65.00;;;;;;5073256;28;20738;-74
2022/06/24 12:52:34;;;;;;;6.75;3.10;;;26.00;70.00;;;;;;5073143;28;20658;-74
2022/06/24 12:55:01;;;;;;;7.68;2.83;;;26.10;71.40;;;;;;5073106;28;20193;-73
2022/06/24 12:57:29;;;;;;;6.15;2.88;;;25.90;73.10;;;;;;5073206;28;20201;-73
2022/06/24 12:59:55;;;;;;;5.03;2.67;;;26.00;75.30;;;;;;5072980;28;20283;-73
2022/06/24 13:02:22;;;;;;;5.15;3.30;;;26.00;77.20;;;;;;5073057;28;20197;-73
2022/06/24 13:04:50;;;;;;;5.70;3.10;;;25.90;92.90;;;;;;5073078;28;20228;-73
2022/06/24 13:07:17;;;;;;;7.00;3.22;;;25.40;92.20;;;;;;5073611;28;20193;-73
2022/06/24 13:09:44;;;;;;;7.63;2.85;;;24.60;96.60;;;;;;5073416;28;20208;-73